Time;durP1;ratioP1;P1;durP2;ratioP2;P2;SDS_P1;SDS_P2;PMS_P1;PMS_P2;Temp;Humidity;BMP_temperature;BMP_pressure;BME280_temperature;BME280_humidity;BME280_pressure;Samples;Min_cycle;Max_cycle;Signal;HPM_P1;HPM_P2
2022/09/25 09:06:26;;;;;;;19.08;11.48;;;;;;;13.47;89.07;96151.44;2066161;28;1251898;-72
2022/09/25 09:07:38;;;;;;;20.23;12.48;;;;;;;13.75;89.00;96147.03;2113406;28;20628;-72
2022/09/25 09:22:10;;;;;;;16.05;9.75;;;;;;;13.62;85.65;96162.75;2085369;27;21027;-73
2022/09/25 09:23:18;;;;;;;16.63;10.73;;;;;;;13.62;84.59;96155.69;2083036;28;20618;-72
2022/09/25 09:24:55;;;;;;;19.17;10.98;;;;;;;13.72;85.65;96148.09;2083083;28;20925;-72
2022/09/25 09:26:04;;;;;;;17.10;10.43;;;;;;;13.51;86.86;96156.41;2074374;28;20232;-72
2022/09/25 09:27:31;;;;;;;16.20;11.88;;;;;;;13.53;88.51;96156.31;2073337;28;20240;-73
2022/09/25 09:52:41;;;;;;;29.27;14.38;;;;;;;13.20;88.61;96154.84;2101071;27;20570;-70
2022/09/25 09:53:57;;;;;;;20.05;13.10;;;;;;;13.31;89.87;96157.66;2098927;28;20296;-72
2022/09/25 10:13:31;;;;;;;25.95;11.90;;;;;;;13.63;83.22;96132.94;2109920;27;20547;-71
2022/09/25 10:14:42;;;;;;;26.70;12.88;;;;;;;13.83;83.02;96156.09;2102423;28;20356;-69
2022/09/25 10:15:56;;;;;;;22.60;12.15;;;;;;;13.74;83.29;96151.47;2092784;28;20223;-68
2022/09/25 10:16:57;;;;;;;32.45;11.60;;;;;;;13.61;84.07;96127.81;2083203;28;20197;-68
2022/09/25 10:52:08;;;;;;;46.90;23.05;;;;;;;13.00;88.32;96166.59;2093270;28;20550;-72
2022/09/25 10:53:31;;;;;;;42.35;24.00;;;;;;;12.90;88.56;96164.53;2087620;28;20299;-72
2022/09/25 10:54:34;;;;;;;38.75;22.02;;;;;;;12.95;88.87;96155.53;2087663;28;20205;-73
2022/09/25 10:55:50;;;;;;;41.90;23.85;;;;;;;13.32;87.87;96164.56;2068391;28;20317;-73
2022/09/25 10:56:52;;;;;;;45.70;25.73;;;;;;;13.90;86.25;96153.06;2081170;28;20293;-73
2022/09/25 11:32:50;;;;;;;28.00;16.13;;;;;;;14.02;81.83;96158.34;2057042;27;1234317;-66
2022/09/25 11:34:32;;;;;;;36.38;18.77;;;;;;;13.98;81.16;96163.91;2103059;28;20210;-67
2022/09/25 11:35:49;;;;;;;30.17;16.25;;;;;;;14.25;80.03;96170.91;2047721;28;20250;-67
2022/09/25 11:37:09;;;;;;;32.22;18.08;;;;;;;14.37;78.92;96156.94;2094557;28;20226;-69
2022/09/25 11:41:35;;;;;;;24.38;16.15;;;;;;;15.18;77.12;96157.53;2095236;28;20784;-69
2022/09/25 11:43:01;;;;;;;26.08;16.83;;;;;;;14.91;78.25;96165.59;2089569;28;20275;-68
2022/09/25 11:44:38;;;;;;;25.55;17.38;;;;;;;15.12;78.19;96160.59;2087285;28;20682;-68
2022/09/25 11:45:42;;;;;;;30.40;16.80;;;;;;;15.31;77.96;96158.34;2086329;28;20220;-71
2022/09/25 11:46:50;;;;;;;27.27;16.15;;;;;;;15.00;78.73;96164.94;2085339;28;20249;-71
2022/09/25 11:48:09;;;;;;;25.48;15.98;;;;;;;15.10;78.30;96157.25;2087595;28;20729;-71
2022/09/25 12:00:04;;;;;;;33.50;16.40;;;;;;;15.03;78.33;96154.19;2090859;28;20558;-68
2022/09/25 12:01:34;;;;;;;24.73;16.38;;;;;;;15.29;78.04;96146.25;2090847;28;20253;-69
2022/09/25 12:03:05;;;;;;;27.23;15.20;;;;;;;15.24;78.24;96149.22;2083335;28;20301;-69
2022/09/25 12:04:15;;;;;;;35.20;16.73;;;;;;;15.33;77.49;96145.09;2077589;28;20231;-69
2022/09/25 12:05:26;;;;;;;24.90;15.00;;;;;;;15.30;76.88;96146.16;2070344;28;20310;-69
2022/09/25 12:07:06;;;;;;;35.95;15.30;;;;;;;15.41;75.95;96150.63;2091673;28;20203;-69
2022/09/25 12:08:25;;;;;;;27.88;16.15;;;;;;;15.38;75.90;96153.47;2082026;28;20227;-68
2022/09/25 12:09:55;;;;;;;23.73;15.10;;;;;;;15.37;76.24;96140.44;2078668;28;20228;-69
2022/09/25 12:11:06;;;;;;;26.65;16.23;;;;;;;15.28;77.61;96142.78;2074421;28;20216;-69
2022/09/25 12:12:36;;;;;;;24.23;15.20;;;;;;;15.25;76.10;96132.50;2074481;28;20225;-69
2022/09/25 12:13:44;;;;;;;25.90;16.38;;;;;;;15.22;73.98;96126.59;2073950;28;20293;-68
2022/09/25 12:15:08;;;;;;;23.77;14.85;;;;;;;15.75;74.15;96153.44;2076394;28;20256;-68
2022/09/25 12:16:58;;;;;;;28.73;15.52;;;;;;;16.36;71.92;96151.66;2068553;28;20282;-68
2022/09/25 12:18:16;;;;;;;29.80;16.35;;;;;;;16.49;71.57;96153.25;2060770;28;20678;-69
2022/09/25 12:19:25;;;;;;;27.13;16.00;;;;;;;15.97;69.95;96142.22;2060143;28;20253;-71
2022/09/25 12:20:31;;;;;;;28.23;16.77;;;;;;;16.10;70.10;96144.75;2059728;28;20245;-70
2022/09/25 12:42:23;;;;;;;24.40;14.38;;;;;;;14.18;82.10;96133.69;2099751;27;20530;-72
2022/09/25 12:43:40;;;;;;;23.75;14.25;;;;;;;14.11;82.68;96140.31;2090930;28;20270;-71
2022/09/25 12:44:53;;;;;;;26.90;13.90;;;;;;;14.33;82.25;96134.44;2075175;28;20228;-71
2022/09/25 12:46:16;;;;;;;27.38;13.32;;;;;;;14.09;81.86;96136.94;2057068;28;20302;-71
2022/09/25 12:47:31;;;;;;;22.98;14.43;;;;;;;14.21;81.72;96144.84;2058690;28;20206;-72
2022/09/25 12:58:53;;;;;;;20.02;12.10;;;;;;;14.89;78.86;96135.94;2092795;27;20565;-71
2022/09/25 13:00:01;;;;;;;19.52;13.60;;;;;;;14.95;78.11;96131.06;2084903;28;20223;-71
2022/09/25 13:01:15;;;;;;;23.40;13.32;;;;;;;14.99;77.80;96121.19;2071772;28;20300;-71
2022/09/25 13:02:39;;;;;;;26.88;13.23;;;;;;;14.98;77.53;96130.00;2073930;28;20196;-71
2022/09/25 13:15:11;;;;;;;26.40;12.90;;;;;;;15.16;77.51;96133.13;2073391;28;20181;-70
2022/09/25 13:16:14;;;;;;;21.55;12.55;;;;;;;15.22;76.45;96131.88;2075533;28;20201;-69
2022/09/25 13:17:16;;;;;;;26.20;12.60;;;;;;;15.18;75.74;96116.31;2074276;28;20641;-69
2022/09/25 13:18:23;;;;;;;20.58;12.77;;;;;;;15.24;76.55;96132.59;2071690;28;20794;-70
2022/09/25 13:19:27;;;;;;;23.75;12.30;;;;;;;15.56;75.91;96126.81;2076825;28;20229;-70
2022/09/25 13:20:32;;;;;;;23.23;12.85;;;;;;;15.80;75.20;96135.50;2071524;28;20302;-70
2022/09/25 13:21:36;;;;;;;23.52;12.13;;;;;;;15.80;74.97;96130.25;2084618;28;20288;-69
2022/09/25 13:22:40;;;;;;;18.55;11.43;;;;;;;15.80;74.97;96129.41;2080012;28;20304;-69
2022/09/25 13:23:41;;;;;;;18.88;12.73;;;;;;;15.56;74.75;96132.06;2074890;28;20285;-70
2022/09/25 13:24:48;;;;;;;21.17;12.98;;;;;;;14.93;76.44;96126.88;2085296;28;20288;-69
2022/09/25 13:25:56;;;;;;;19.50;12.05;;;;;;;15.11;77.42;96122.09;2069189;28;20408;-69
2022/09/25 13:27:03;;;;;;;23.75;13.50;;;;;;;15.41;76.39;96119.06;2066212;28;20285;-69
2022/09/25 13:28:08;;;;;;;21.77;12.93;;;;;;;15.21;76.12;96114.41;2079617;28;20276;-69
2022/09/25 13:29:26;;;;;;;20.92;11.60;;;;;;;14.91;77.24;96124.34;2075427;28;20253;-69
2022/09/25 13:30:28;;;;;;;23.38;12.48;;;;;;;15.24;76.36;96119.44;2073587;28;20225;-69
2022/09/25 13:31:32;;;;;;;23.77;13.45;;;;;;;15.39;74.51;96125.38;2073533;28;20193;-70
2022/09/25 13:32:34;;;;;;;18.08;11.82;;;;;;;15.94;74.49;96121.34;2074772;28;20201;-69
2022/09/25 13:41:48;;;;;;;20.35;11.32;;;;;;;17.53;68.00;96128.53;2079333;28;20212;-70
2022/09/25 13:42:49;;;;;;;18.58;11.65;;;;;;;16.93;69.08;96100.69;2066285;28;20194;-69
2022/09/25 13:44:30;;;;;;;21.92;11.57;;;;;;;17.08;68.47;96126.81;2066141;28;20661;-70
2022/09/25 13:45:33;;;;;;;25.20;12.70;;;;;;;16.80;68.57;96124.50;2073990;28;20225;-70
2022/09/25 13:46:36;;;;;;;22.45;11.30;;;;;;;16.98;69.47;96124.88;2071982;28;20226;-69
2022/09/25 13:47:48;;;;;;;16.67;11.20;;;;;;;17.14;68.33;96129.78;2081869;28;20292;-70
2022/09/25 13:48:51;;;;;;;16.92;10.60;;;;;;;16.79;69.05;96099.09;2082864;28;20217;-70
2022/09/25 13:50:10;;;;;;;20.08;11.32;;;;;;;16.64;70.38;96126.66;2072253;28;20333;-69
2022/09/25 13:51:21;;;;;;;19.75;10.48;;;;;;;16.60;69.39;96125.22;2074207;28;20225;-70
2022/09/25 13:52:37;;;;;;;21.20;11.25;;;;;;;16.29;71.07;96128.41;2073627;28;20209;-69
2022/09/25 13:54:07;;;;;;;14.88;9.57;;;;;;;16.18;71.78;96132.81;2060276;28;20280;-70
2022/09/25 13:55:12;;;;;;;17.80;10.25;;;;;;;16.15;72.31;96128.59;2062785;28;20251;-69
2022/09/25 13:56:17;;;;;;;19.33;10.10;;;;;;;16.07;71.43;96134.44;2081048;28;20266;-69
2022/09/25 13:57:57;;;;;;;19.63;11.38;;;;;;;15.32;74.43;96130.25;2078327;28;20208;-70
2022/09/25 13:59:01;;;;;;;21.98;10.85;;;;;;;15.52;73.56;96132.28;2075232;28;20218;-70
2022/09/25 14:00:04;;;;;;;19.85;10.27;;;;;;;15.86;72.79;96125.50;2071521;28;20216;-69
2022/09/25 14:01:34;;;;;;;16.23;9.40;;;;;;;16.11;72.06;96125.38;2055993;28;20199;-73
2022/09/25 14:02:45;;;;;;;16.83;9.70;;;;;;;16.57;70.52;96107.00;2060780;28;20253;-73
2022/09/25 14:03:50;;;;;;;18.20;9.88;;;;;;;17.28;67.97;96090.91;2064080;28;20236;-73
2022/09/25 14:04:51;;;;;;;22.13;9.40;;;;;;;17.04;69.30;96123.56;2058472;28;20219;-73
2022/09/25 14:05:53;;;;;;;15.45;9.32;;;;;;;16.51;70.50;96112.75;2029904;29;20236;-73
2022/09/25 14:30:28;;;;;;;17.92;10.55;;;;;;;15.39;74.69;96091.19;2082670;28;20571;-73
2022/09/25 14:31:30;;;;;;;18.48;10.15;;;;;;;15.44;74.41;96112.72;2081971;28;20278;-73
2022/09/25 14:32:44;;;;;;;16.02;10.80;;;;;;;15.47;75.04;96112.53;2083674;28;20625;-73
2022/09/25 14:34:15;;;;;;;17.08;11.43;;;;;;;15.33;75.92;96114.34;2082478;28;20207;-73
2022/09/25 14:35:29;;;;;;;21.73;10.30;;;;;;;15.65;74.79;96105.06;2071720;28;20270;-73
2022/09/25 14:37:06;;;;;;;19.58;10.95;;;;;;;15.88;75.03;96113.09;2090711;28;20337;-73
2022/09/25 14:38:35;;;;;;;16.27;10.10;;;;;;;15.81;74.10;96108.28;2077747;28;20640;-73
2022/09/25 14:48:13;;;;;;;18.73;9.52;;;;;;;14.79;75.40;96075.28;2090881;27;20554;-72
2022/09/25 14:49:27;;;;;;;16.23;9.75;;;;;;;15.01;75.61;96090.38;2090223;28;20196;-73
2022/09/25 14:50:34;;;;;;;16.90;11.07;;;;;;;14.96;75.96;96101.22;2078580;28;20256;-72
2022/09/25 15:02:01;;;;;;;28.20;13.30;;;;;;;14.59;79.58;96108.16;2108408;27;20553;-72
2022/09/25 15:03:03;;;;;;;24.23;12.80;;;;;;;14.46;79.41;96102.94;2115496;28;20652;-72
2022/09/25 15:04:07;;;;;;;24.33;14.18;;;;;;;14.41;80.41;96103.25;2110696;28;20320;-73
2022/09/25 15:05:27;;;;;;;22.83;12.45;;;;;;;14.44;79.66;96115.34;2097366;28;20209;-73
2022/09/25 15:48:49;;;;;;;14.18;8.80;;;;;;;13.12;83.17;96087.19;2090382;28;20575;-74
2022/09/25 15:49:54;;;;;;;81.80;34.70;;;;;;;13.14;83.19;96081.84;2082914;28;20533;-74
2022/09/25 16:06:23;;;;;;;19.40;9.63;;;;;;;12.88;81.54;96077.31;2055831;27;1510870;-72
2022/09/25 16:07:34;;;;;;;16.77;9.52;;;;;;;13.09;82.11;96095.25;2106148;28;20454;-73
2022/09/25 16:08:36;;;;;;;16.90;7.75;;;;;;;13.05;82.33;96099.00;2106235;28;20237;-72
